Airfield :
LOGIN :

Register | Disclaimer

   EN    FR    IT 

 










Legend :    VFR   Marginal VFR   IFR   Intensive IFR   Very Intensive IFR
Visi :
Ceiling :
>= 8 km
>= 3000ft
5 to 8 km
1000 to 3000 ft
1500m to 5 km
500 to 1000 ft
800 to 1500m
200 to 500 ft
< 800m
< 200 ft
Symbols :   Thunderstorms  Fog  Heavy snow  Heavy precipitations  Wind > 20 kt
SIGMETs :     Misc.  Thunderstorms  Icing  Turbulence  Mountain Waves  Volcanic Ashes






- Airport Elevation : 7 ft
- IATA code : POW


LJPZ - Portoroz

CURRENT METAR :
  • 082100Z 12021G31KT 6000 RA SCT040 BKN050 09/07 Q0998

EXPIRED METARs :
  • 082030Z 11022KT 9999 -RA SCT040 BKN050 09/06 Q0998
  • 082000Z 11018KT 070V140 9999 -RA SCT040 BKN050 09/06 Q0998
  • 081930Z 11015KT 080V160 9999 -RA SCT040 BKN050 08/05 Q0999
  • 081900Z 11007KT 070V160 9999 -RA SCT040 BKN050 08/05 Q1000

TAF TAF LJPZ
Valid from the 08 at 21:00 until the 09 at 06:00 UTC


082000Z 0821/0906 13012KT 9999 RA BKN035
PROB40
TEMPO 0821/0822 13015G25KT
BECMG 0821/0823 19008KT
BECMG 0902/0905 NSW



MET'MAP, your aeronautical weather chart ! - Copyright ORBIFLY December 2007 - Disclaimer

ORBIFLY MET'MAP TEAM :

Programming & Development : Alexandra Zaïnal
Concept & original design : Baudouin d'Aumeries
Assistance for programming : Marc-Olivier Méhu
Technical & hardware support : Manuel Goepfert

Contact : metmap@orbifly.com




SOURCES & CREDITS :

   NOAA